sensor_id;sensor_type;location;lat;lon;timestamp;P1;durP1;ratioP1;P2;durP2;ratioP2
11086;SDS011;5597;47.588;9.642;2023-06-22T00:01:27;9.63;;;4.83;;
11086;SDS011;5597;47.588;9.642;2023-06-22T00:03:53;9.03;;;5.40;;
11086;SDS011;5597;47.588;9.642;2023-06-22T00:06:19;8.40;;;5.20;;
11086;SDS011;5597;47.588;9.642;2023-06-22T00:08:44;6.27;;;5.10;;
11086;SDS011;5597;47.588;9.642;2023-06-22T00:11:10;8.13;;;5.30;;
11086;SDS011;5597;47.588;9.642;2023-06-22T00:13:37;9.17;;;4.77;;
11086;SDS011;5597;47.588;9.642;2023-06-22T00:16:03;7.93;;;5.37;;
11086;SDS011;5597;47.588;9.642;2023-06-22T00:18:29;8.77;;;5.33;;
11086;SDS011;5597;47.588;9.642;2023-06-22T00:20:55;8.63;;;5.13;;
11086;SDS011;5597;47.588;9.642;2023-06-22T00:23:24;9.37;;;5.37;;
11086;SDS011;5597;47.588;9.642;2023-06-22T00:25:50;8.27;;;5.20;;
11086;SDS011;5597;47.588;9.642;2023-06-22T00:28:16;9.30;;;5.80;;
11086;SDS011;5597;47.588;9.642;2023-06-22T00:30:41;8.63;;;5.40;;
11086;SDS011;5597;47.588;9.642;2023-06-22T00:33:07;8.67;;;5.50;;
11086;SDS011;5597;47.588;9.642;2023-06-22T00:35:33;8.43;;;5.47;;
11086;SDS011;5597;47.588;9.642;2023-06-22T00:37:59;8.47;;;5.87;;
11086;SDS011;5597;47.588;9.642;2023-06-22T00:40:30;8.77;;;5.60;;
11086;SDS011;5597;47.588;9.642;2023-06-22T00:42:56;10.43;;;5.70;;
11086;SDS011;5597;47.588;9.642;2023-06-22T00:45:25;11.17;;;5.87;;
11086;SDS011;5597;47.588;9.642;2023-06-22T00:47:56;11.93;;;6.27;;
11086;SDS011;5597;47.588;9.642;2023-06-22T00:50:23;10.10;;;5.57;;
11086;SDS011;5597;47.588;9.642;2023-06-22T00:52:53;7.70;;;5.37;;
11086;SDS011;5597;47.588;9.642;2023-06-22T00:55:24;7.47;;;5.20;;
11086;SDS011;5597;47.588;9.642;2023-06-22T00:57:51;10.67;;;6.30;;
11086;SDS011;5597;47.588;9.642;2023-06-22T01:00:21;12.90;;;6.13;;
11086;SDS011;5597;47.588;9.642;2023-06-22T01:02:49;6.13;;;4.77;;
11086;SDS011;5597;47.588;9.642;2023-06-22T01:05:17;7.90;;;4.60;;
11086;SDS011;5597;47.588;9.642;2023-06-22T01:07:56;7.10;;;5.20;;
11086;SDS011;5597;47.588;9.642;2023-06-22T01:10:25;6.63;;;4.67;;
11086;SDS011;5597;47.588;9.642;2023-06-22T01:13:04;6.13;;;4.50;;
11086;SDS011;5597;47.588;9.642;2023-06-22T01:15:58;5.10;;;4.50;;
11086;SDS011;5597;47.588;9.642;2023-06-22T01:18:32;6.10;;;4.57;;
11086;SDS011;5597;47.588;9.642;2023-06-22T01:21:01;5.97;;;4.50;;
11086;SDS011;5597;47.588;9.642;2023-06-22T01:23:37;7.80;;;4.83;;
11086;SDS011;5597;47.588;9.642;2023-06-22T01:26:18;6.03;;;4.50;;
11086;SDS011;5597;47.588;9.642;2023-06-22T01:28:55;6.03;;;5.00;;
11086;SDS011;5597;47.588;9.642;2023-06-22T01:31:24;6.03;;;4.93;;
11086;SDS011;5597;47.588;9.642;2023-06-22T01:33:53;5.73;;;4.53;;
11086;SDS011;5597;47.588;9.642;2023-06-22T01:36:21;5.90;;;4.23;;
11086;SDS011;5597;47.588;9.642;2023-06-22T01:38:48;6.07;;;4.63;;
11086;SDS011;5597;47.588;9.642;2023-06-22T01:41:15;5.30;;;4.33;;
11086;SDS011;5597;47.588;9.642;2023-06-22T01:43:42;6.47;;;4.87;;
11086;SDS011;5597;47.588;9.642;2023-06-22T01:46:08;6.53;;;4.83;;
11086;SDS011;5597;47.588;9.642;2023-06-22T01:48:36;8.77;;;5.77;;
11086;SDS011;5597;47.588;9.642;2023-06-22T01:51:04;7.60;;;6.10;;
11086;SDS011;5597;47.588;9.642;2023-06-22T01:53:29;7.23;;;5.03;;
11086;SDS011;5597;47.588;9.642;2023-06-22T01:55:56;9.93;;;6.07;;
11086;SDS011;5597;47.588;9.642;2023-06-22T01:58:23;9.57;;;5.67;;
11086;SDS011;5597;47.588;9.642;2023-06-22T02:01:00;5.93;;;5.13;;
11086;SDS011;5597;47.588;9.642;2023-06-22T02:03:37;6.97;;;5.13;;
11086;SDS011;5597;47.588;9.642;2023-06-22T02:06:16;10.33;;;5.83;;
11086;SDS011;5597;47.588;9.642;2023-06-22T02:08:54;7.60;;;5.37;;
11086;SDS011;5597;47.588;9.642;2023-06-22T02:11:24;5.37;;;4.87;;
11086;SDS011;5597;47.588;9.642;2023-06-22T02:13:52;8.30;;;5.40;;
11086;SDS011;5597;47.588;9.642;2023-06-22T02:16:18;5.87;;;5.27;;
11086;SDS011;5597;47.588;9.642;2023-06-22T02:18:48;7.33;;;5.50;;
11086;SDS011;5597;47.588;9.642;2023-06-22T02:21:18;8.13;;;6.37;;
11086;SDS011;5597;47.588;9.642;2023-06-22T02:23:44;8.90;;;5.43;;
11086;SDS011;5597;47.588;9.642;2023-06-22T02:26:09;6.63;;;4.90;;
11086;SDS011;5597;47.588;9.642;2023-06-22T02:28:35;6.00;;;4.93;;
11086;SDS011;5597;47.588;9.642;2023-06-22T02:31:01;9.53;;;5.93;;
11086;SDS011;5597;47.588;9.642;2023-06-22T02:33:27;9.10;;;5.97;;
11086;SDS011;5597;47.588;9.642;2023-06-22T02:35:53;7.47;;;5.63;;
11086;SDS011;5597;47.588;9.642;2023-06-22T02:38:19;7.77;;;5.37;;
11086;SDS011;5597;47.588;9.642;2023-06-22T02:40:45;7.87;;;6.00;;
11086;SDS011;5597;47.588;9.642;2023-06-22T02:43:11;7.37;;;5.73;;
11086;SDS011;5597;47.588;9.642;2023-06-22T02:45:37;8.13;;;5.67;;
11086;SDS011;5597;47.588;9.642;2023-06-22T02:48:03;8.70;;;5.57;;
11086;SDS011;5597;47.588;9.642;2023-06-22T02:50:29;7.63;;;5.60;;
11086;SDS011;5597;47.588;9.642;2023-06-22T02:52:55;5.80;;;5.20;;
11086;SDS011;5597;47.588;9.642;2023-06-22T02:55:21;6.13;;;5.27;;
11086;SDS011;5597;47.588;9.642;2023-06-22T02:57:47;6.17;;;5.00;;
11086;SDS011;5597;47.588;9.642;2023-06-22T03:00:13;6.67;;;5.37;;
11086;SDS011;5597;47.588;9.642;2023-06-22T03:02:43;7.17;;;5.27;;
11086;SDS011;5597;47.588;9.642;2023-06-22T03:05:09;7.50;;;5.20;;
11086;SDS011;5597;47.588;9.642;2023-06-22T03:07:41;10.93;;;6.33;;
11086;SDS011;5597;47.588;9.642;2023-06-22T03:10:11;8.17;;;5.97;;
11086;SDS011;5597;47.588;9.642;2023-06-22T03:12:37;8.23;;;5.33;;
11086;SDS011;5597;47.588;9.642;2023-06-22T03:15:07;6.90;;;5.10;;
11086;SDS011;5597;47.588;9.642;2023-06-22T03:17:34;8.47;;;5.67;;
11086;SDS011;5597;47.588;9.642;2023-06-22T03:20:01;6.87;;;5.90;;
11086;SDS011;5597;47.588;9.642;2023-06-22T03:22:34;8.80;;;6.40;;
11086;SDS011;5597;47.588;9.642;2023-06-22T03:25:00;7.63;;;6.00;;
11086;SDS011;5597;47.588;9.642;2023-06-22T03:27:26;7.07;;;5.70;;
11086;SDS011;5597;47.588;9.642;2023-06-22T03:29:52;8.33;;;6.37;;
11086;SDS011;5597;47.588;9.642;2023-06-22T03:32:18;7.73;;;5.27;;
11086;SDS011;5597;47.588;9.642;2023-06-22T03:34:43;7.93;;;5.17;;
11086;SDS011;5597;47.588;9.642;2023-06-22T03:37:12;6.20;;;5.20;;
11086;SDS011;5597;47.588;9.642;2023-06-22T03:39:43;6.53;;;4.93;;
11086;SDS011;5597;47.588;9.642;2023-06-22T03:42:11;5.33;;;4.83;;
11086;SDS011;5597;47.588;9.642;2023-06-22T03:44:37;8.10;;;5.70;;
11086;SDS011;5597;47.588;9.642;2023-06-22T03:47:04;6.17;;;4.97;;
11086;SDS011;5597;47.588;9.642;2023-06-22T03:49:29;6.73;;;5.37;;
11086;SDS011;5597;47.588;9.642;2023-06-22T03:51:55;9.70;;;6.40;;
11086;SDS011;5597;47.588;9.642;2023-06-22T03:54:21;9.70;;;6.40;;
11086;SDS011;5597;47.588;9.642;2023-06-22T03:56:46;6.13;;;5.53;;
11086;SDS011;5597;47.588;9.642;2023-06-22T03:59:12;8.97;;;6.00;;
11086;SDS011;5597;47.588;9.642;2023-06-22T04:01:38;9.23;;;5.70;;
11086;SDS011;5597;47.588;9.642;2023-06-22T04:04:03;5.87;;;4.93;;
11086;SDS011;5597;47.588;9.642;2023-06-22T04:06:29;7.23;;;6.07;;
11086;SDS011;5597;47.588;9.642;2023-06-22T04:08:55;10.27;;;6.00;;
11086;SDS011;5597;47.588;9.642;2023-06-22T04:11:21;7.67;;;5.40;;
11086;SDS011;5597;47.588;9.642;2023-06-22T04:13:46;9.17;;;6.43;;
11086;SDS011;5597;47.588;9.642;2023-06-22T04:16:13;13.00;;;7.50;;
11086;SDS011;5597;47.588;9.642;2023-06-22T04:18:39;6.77;;;5.80;;
11086;SDS011;5597;47.588;9.642;2023-06-22T04:21:05;8.93;;;6.10;;
11086;SDS011;5597;47.588;9.642;2023-06-22T04:23:30;10.17;;;6.80;;
11086;SDS011;5597;47.588;9.642;2023-06-22T04:25:56;9.10;;;6.80;;
11086;SDS011;5597;47.588;9.642;2023-06-22T04:28:22;9.57;;;7.00;;
11086;SDS011;5597;47.588;9.642;2023-06-22T04:30:48;9.87;;;6.93;;
11086;SDS011;5597;47.588;9.642;2023-06-22T04:33:16;6.87;;;6.17;;
11086;SDS011;5597;47.588;9.642;2023-06-22T04:35:44;7.77;;;6.07;;
11086;SDS011;5597;47.588;9.642;2023-06-22T04:38:11;7.87;;;6.30;;
11086;SDS011;5597;47.588;9.642;2023-06-22T04:40:38;7.93;;;5.83;;
11086;SDS011;5597;47.588;9.642;2023-06-22T04:43:04;7.87;;;6.00;;
11086;SDS011;5597;47.588;9.642;2023-06-22T04:45:31;10.07;;;6.87;;
11086;SDS011;5597;47.588;9.642;2023-06-22T04:47:57;9.97;;;6.50;;
11086;SDS011;5597;47.588;9.642;2023-06-22T04:50:23;7.77;;;6.57;;
11086;SDS011;5597;47.588;9.642;2023-06-22T04:52:49;7.23;;;5.50;;
11086;SDS011;5597;47.588;9.642;2023-06-22T04:55:16;7.80;;;6.27;;
11086;SDS011;5597;47.588;9.642;2023-06-22T04:57:43;11.97;;;7.50;;
11086;SDS011;5597;47.588;9.642;2023-06-22T05:00:14;8.77;;;6.43;;
11086;SDS011;5597;47.588;9.642;2023-06-22T05:02:48;12.93;;;7.13;;
11086;SDS011;5597;47.588;9.642;2023-06-22T05:05:14;11.13;;;7.13;;
11086;SDS011;5597;47.588;9.642;2023-06-22T05:07:44;8.93;;;6.43;;
11086;SDS011;5597;47.588;9.642;2023-06-22T05:10:12;9.83;;;6.23;;
11086;SDS011;5597;47.588;9.642;2023-06-22T05:12:38;9.90;;;6.40;;
11086;SDS011;5597;47.588;9.642;2023-06-22T05:15:05;7.47;;;6.10;;
11086;SDS011;5597;47.588;9.642;2023-06-22T05:17:40;7.83;;;5.87;;
11086;SDS011;5597;47.588;9.642;2023-06-22T05:20:08;6.73;;;5.53;;
11086;SDS011;5597;47.588;9.642;2023-06-22T05:22:35;6.60;;;5.37;;
11086;SDS011;5597;47.588;9.642;2023-06-22T05:25:01;8.47;;;6.30;;
11086;SDS011;5597;47.588;9.642;2023-06-22T05:27:26;8.70;;;6.10;;
11086;SDS011;5597;47.588;9.642;2023-06-22T05:29:52;5.20;;;4.70;;
11086;SDS011;5597;47.588;9.642;2023-06-22T05:32:18;7.00;;;5.50;;
11086;SDS011;5597;47.588;9.642;2023-06-22T05:34:44;9.87;;;6.00;;
11086;SDS011;5597;47.588;9.642;2023-06-22T05:37:09;10.40;;;6.00;;
11086;SDS011;5597;47.588;9.642;2023-06-22T05:39:35;8.50;;;5.63;;
11086;SDS011;5597;47.588;9.642;2023-06-22T05:42:03;8.30;;;5.90;;
11086;SDS011;5597;47.588;9.642;2023-06-22T05:44:32;6.50;;;4.90;;
11086;SDS011;5597;47.588;9.642;2023-06-22T05:46:58;8.10;;;5.90;;
11086;SDS011;5597;47.588;9.642;2023-06-22T05:49:24;9.70;;;5.77;;
11086;SDS011;5597;47.588;9.642;2023-06-22T05:51:54;9.50;;;5.80;;
11086;SDS011;5597;47.588;9.642;2023-06-22T05:54:21;10.80;;;7.37;;
11086;SDS011;5597;47.588;9.642;2023-06-22T05:56:47;12.10;;;6.87;;
11086;SDS011;5597;47.588;9.642;2023-06-22T05:59:13;13.40;;;7.50;;
11086;SDS011;5597;47.588;9.642;2023-06-22T06:01:38;14.30;;;7.83;;
11086;SDS011;5597;47.588;9.642;2023-06-22T06:04:05;9.17;;;5.80;;
11086;SDS011;5597;47.588;9.642;2023-06-22T06:06:33;10.90;;;5.90;;
11086;SDS011;5597;47.588;9.642;2023-06-22T06:08:59;10.47;;;5.43;;
11086;SDS011;5597;47.588;9.642;2023-06-22T06:11:25;9.10;;;5.70;;
11086;SDS011;5597;47.588;9.642;2023-06-22T06:13:51;7.03;;;5.00;;
11086;SDS011;5597;47.588;9.642;2023-06-22T06:16:17;9.40;;;5.27;;
11086;SDS011;5597;47.588;9.642;2023-06-22T06:18:42;8.47;;;5.90;;
11086;SDS011;5597;47.588;9.642;2023-06-22T06:21:08;7.13;;;5.57;;
11086;SDS011;5597;47.588;9.642;2023-06-22T06:23:34;7.40;;;4.90;;
11086;SDS011;5597;47.588;9.642;2023-06-22T06:25:59;7.73;;;5.30;;
11086;SDS011;5597;47.588;9.642;2023-06-22T06:28:26;6.43;;;5.10;;
11086;SDS011;5597;47.588;9.642;2023-06-22T06:30:52;7.33;;;4.43;;
11086;SDS011;5597;47.588;9.642;2023-06-22T06:33:18;8.53;;;5.27;;
11086;SDS011;5597;47.588;9.642;2023-06-22T06:35:44;7.33;;;4.47;;
11086;SDS011;5597;47.588;9.642;2023-06-22T06:38:09;5.90;;;4.30;;
11086;SDS011;5597;47.588;9.642;2023-06-22T06:40:35;8.33;;;4.70;;
11086;SDS011;5597;47.588;9.642;2023-06-22T06:43:01;9.10;;;5.57;;
11086;SDS011;5597;47.588;9.642;2023-06-22T06:45:27;8.07;;;5.10;;
11086;SDS011;5597;47.588;9.642;2023-06-22T06:47:53;7.30;;;4.60;;
11086;SDS011;5597;47.588;9.642;2023-06-22T06:50:19;7.00;;;4.90;;
11086;SDS011;5597;47.588;9.642;2023-06-22T06:52:45;6.63;;;4.97;;
11086;SDS011;5597;47.588;9.642;2023-06-22T06:55:11;8.40;;;5.10;;
11086;SDS011;5597;47.588;9.642;2023-06-22T06:57:40;7.57;;;5.17;;
11086;SDS011;5597;47.588;9.642;2023-06-22T07:00:08;8.80;;;5.03;;
11086;SDS011;5597;47.588;9.642;2023-06-22T07:02:40;8.33;;;4.93;;
11086;SDS011;5597;47.588;9.642;2023-06-22T07:05:07;6.67;;;4.10;;
11086;SDS011;5597;47.588;9.642;2023-06-22T07:07:33;6.57;;;4.67;;
11086;SDS011;5597;47.588;9.642;2023-06-22T07:10:00;5.27;;;4.20;;
11086;SDS011;5597;47.588;9.642;2023-06-22T07:12:25;8.47;;;4.60;;
11086;SDS011;5597;47.588;9.642;2023-06-22T07:14:51;7.03;;;5.00;;
11086;SDS011;5597;47.588;9.642;2023-06-22T07:17:17;8.00;;;5.10;;
11086;SDS011;5597;47.588;9.642;2023-06-22T07:19:52;7.50;;;5.30;;
11086;SDS011;5597;47.588;9.642;2023-06-22T07:22:18;12.43;;;6.50;;
11086;SDS011;5597;47.588;9.642;2023-06-22T07:24:43;8.80;;;4.63;;
11086;SDS011;5597;47.588;9.642;2023-06-22T07:27:09;5.57;;;4.27;;
11086;SDS011;5597;47.588;9.642;2023-06-22T07:29:37;10.07;;;5.90;;
11086;SDS011;5597;47.588;9.642;2023-06-22T07:32:05;10.07;;;6.37;;
11086;SDS011;5597;47.588;9.642;2023-06-22T07:34:31;12.90;;;7.10;;
11086;SDS011;5597;47.588;9.642;2023-06-22T07:36:58;11.43;;;7.23;;
11086;SDS011;5597;47.588;9.642;2023-06-22T07:39:24;14.20;;;7.17;;
11086;SDS011;5597;47.588;9.642;2023-06-22T07:41:51;8.97;;;6.23;;
11086;SDS011;5597;47.588;9.642;2023-06-22T07:44:17;11.77;;;6.97;;
11086;SDS011;5597;47.588;9.642;2023-06-22T07:46:43;12.03;;;6.90;;
11086;SDS011;5597;47.588;9.642;2023-06-22T07:49:08;8.73;;;5.67;;
11086;SDS011;5597;47.588;9.642;2023-06-22T07:51:37;11.00;;;7.20;;
11086;SDS011;5597;47.588;9.642;2023-06-22T07:54:03;9.60;;;5.93;;
11086;SDS011;5597;47.588;9.642;2023-06-22T07:56:28;14.40;;;8.40;;
11086;SDS011;5597;47.588;9.642;2023-06-22T07:58:54;12.27;;;6.70;;
11086;SDS011;5597;47.588;9.642;2023-06-22T08:01:23;9.17;;;6.07;;
11086;SDS011;5597;47.588;9.642;2023-06-22T08:03:48;9.63;;;5.90;;
11086;SDS011;5597;47.588;9.642;2023-06-22T08:06:14;7.73;;;6.00;;
11086;SDS011;5597;47.588;9.642;2023-06-22T08:08:41;8.47;;;5.93;;
11086;SDS011;5597;47.588;9.642;2023-06-22T08:11:07;12.30;;;7.50;;
11086;SDS011;5597;47.588;9.642;2023-06-22T08:13:33;8.60;;;6.07;;
11086;SDS011;5597;47.588;9.642;2023-06-22T08:15:59;8.83;;;5.93;;
11086;SDS011;5597;47.588;9.642;2023-06-22T08:18:25;8.67;;;5.90;;
11086;SDS011;5597;47.588;9.642;2023-06-22T08:20:50;7.77;;;5.90;;
11086;SDS011;5597;47.588;9.642;2023-06-22T08:23:16;7.47;;;5.30;;
11086;SDS011;5597;47.588;9.642;2023-06-22T08:25:42;7.43;;;5.27;;
11086;SDS011;5597;47.588;9.642;2023-06-22T08:28:08;10.07;;;5.80;;
11086;SDS011;5597;47.588;9.642;2023-06-22T08:30:33;11.37;;;7.17;;
11086;SDS011;5597;47.588;9.642;2023-06-22T08:32:59;9.20;;;5.87;;
11086;SDS011;5597;47.588;9.642;2023-06-22T08:35:25;8.43;;;5.50;;
11086;SDS011;5597;47.588;9.642;2023-06-22T08:37:55;9.00;;;6.20;;
11086;SDS011;5597;47.588;9.642;2023-06-22T08:40:22;15.07;;;7.43;;
11086;SDS011;5597;47.588;9.642;2023-06-22T08:42:48;12.50;;;9.53;;
11086;SDS011;5597;47.588;9.642;2023-06-22T08:45:14;15.53;;;8.73;;
11086;SDS011;5597;47.588;9.642;2023-06-22T08:47:40;12.53;;;8.63;;
11086;SDS011;5597;47.588;9.642;2023-06-22T08:50:07;10.40;;;7.80;;
11086;SDS011;5597;47.588;9.642;2023-06-22T08:52:34;10.30;;;7.27;;
11086;SDS011;5597;47.588;9.642;2023-06-22T08:55:00;9.43;;;6.90;;
11086;SDS011;5597;47.588;9.642;2023-06-22T08:57:26;9.83;;;6.77;;
11086;SDS011;5597;47.588;9.642;2023-06-22T08:59:52;11.90;;;8.00;;
11086;SDS011;5597;47.588;9.642;2023-06-22T09:02:18;11.40;;;8.47;;
11086;SDS011;5597;47.588;9.642;2023-06-22T09:04:45;10.50;;;6.93;;
11086;SDS011;5597;47.588;9.642;2023-06-22T09:07:11;8.83;;;6.80;;
11086;SDS011;5597;47.588;9.642;2023-06-22T09:09:37;9.30;;;6.30;;
11086;SDS011;5597;47.588;9.642;2023-06-22T09:12:03;8.07;;;5.53;;
11086;SDS011;5597;47.588;9.642;2023-06-22T09:14:29;11.93;;;6.50;;
11086;SDS011;5597;47.588;9.642;2023-06-22T09:16:54;8.57;;;6.73;;
11086;SDS011;5597;47.588;9.642;2023-06-22T09:19:20;10.87;;;7.17;;
11086;SDS011;5597;47.588;9.642;2023-06-22T09:21:46;9.77;;;7.37;;
11086;SDS011;5597;47.588;9.642;2023-06-22T09:24:11;10.43;;;5.60;;
11086;SDS011;5597;47.588;9.642;2023-06-22T09:26:37;8.70;;;6.10;;
11086;SDS011;5597;47.588;9.642;2023-06-22T09:29:04;10.50;;;6.83;;
11086;SDS011;5597;47.588;9.642;2023-06-22T09:31:31;7.60;;;5.03;;
11086;SDS011;5597;47.588;9.642;2023-06-22T09:33:56;11.60;;;6.67;;
11086;SDS011;5597;47.588;9.642;2023-06-22T09:36:22;8.53;;;6.60;;
11086;SDS011;5597;47.588;9.642;2023-06-22T09:38:48;9.63;;;5.93;;
11086;SDS011;5597;47.588;9.642;2023-06-22T09:41:20;11.73;;;7.37;;
11086;SDS011;5597;47.588;9.642;2023-06-22T09:43:45;13.40;;;7.97;;
11086;SDS011;5597;47.588;9.642;2023-06-22T09:46:12;9.67;;;6.83;;
11086;SDS011;5597;47.588;9.642;2023-06-22T09:48:38;13.53;;;7.13;;
11086;SDS011;5597;47.588;9.642;2023-06-22T09:51:03;9.07;;;6.83;;
11086;SDS011;5597;47.588;9.642;2023-06-22T09:53:29;8.00;;;6.30;;
11086;SDS011;5597;47.588;9.642;2023-06-22T09:55:54;11.97;;;7.13;;
11086;SDS011;5597;47.588;9.642;2023-06-22T09:58:20;7.60;;;5.63;;
11086;SDS011;5597;47.588;9.642;2023-06-22T10:00:46;9.47;;;6.93;;
11086;SDS011;5597;47.588;9.642;2023-06-22T10:03:11;8.60;;;6.80;;
11086;SDS011;5597;47.588;9.642;2023-06-22T10:05:37;9.63;;;6.57;;
11086;SDS011;5597;47.588;9.642;2023-06-22T10:08:03;9.37;;;6.30;;
11086;SDS011;5597;47.588;9.642;2023-06-22T10:10:28;8.33;;;6.60;;
11086;SDS011;5597;47.588;9.642;2023-06-22T10:12:57;9.10;;;5.60;;
11086;SDS011;5597;47.588;9.642;2023-06-22T10:15:32;8.43;;;5.27;;
11086;SDS011;5597;47.588;9.642;2023-06-22T10:17:57;10.80;;;5.47;;
11086;SDS011;5597;47.588;9.642;2023-06-22T10:20:23;7.50;;;5.27;;
11086;SDS011;5597;47.588;9.642;2023-06-22T10:22:50;9.27;;;6.20;;
11086;SDS011;5597;47.588;9.642;2023-06-22T10:25:16;9.73;;;6.80;;
11086;SDS011;5597;47.588;9.642;2023-06-22T10:27:42;9.30;;;6.70;;
11086;SDS011;5597;47.588;9.642;2023-06-22T10:30:08;9.63;;;6.63;;
11086;SDS011;5597;47.588;9.642;2023-06-22T10:32:35;6.30;;;5.20;;
11086;SDS011;5597;47.588;9.642;2023-06-22T10:35:11;9.23;;;6.47;;
11086;SDS011;5597;47.588;9.642;2023-06-22T10:37:38;11.53;;;5.60;;
11086;SDS011;5597;47.588;9.642;2023-06-22T10:40:04;9.67;;;5.70;;
11086;SDS011;5597;47.588;9.642;2023-06-22T10:42:30;9.87;;;5.10;;
11086;SDS011;5597;47.588;9.642;2023-06-22T10:44:56;9.27;;;5.30;;
11086;SDS011;5597;47.588;9.642;2023-06-22T10:47:22;7.43;;;4.97;;
11086;SDS011;5597;47.588;9.642;2023-06-22T10:49:47;9.33;;;5.93;;
11086;SDS011;5597;47.588;9.642;2023-06-22T10:52:13;9.77;;;6.10;;
11086;SDS011;5597;47.588;9.642;2023-06-22T10:54:39;8.20;;;5.70;;
11086;SDS011;5597;47.588;9.642;2023-06-22T10:57:04;9.80;;;6.13;;
11086;SDS011;5597;47.588;9.642;2023-06-22T10:59:30;9.43;;;5.63;;
11086;SDS011;5597;47.588;9.642;2023-06-22T11:01:56;10.23;;;6.20;;
11086;SDS011;5597;47.588;9.642;2023-06-22T11:04:22;8.77;;;6.30;;
11086;SDS011;5597;47.588;9.642;2023-06-22T11:06:49;8.47;;;5.57;;
11086;SDS011;5597;47.588;9.642;2023-06-22T11:09:15;9.03;;;5.73;;
11086;SDS011;5597;47.588;9.642;2023-06-22T11:11:50;8.03;;;5.23;;
11086;SDS011;5597;47.588;9.642;2023-06-22T11:14:18;7.10;;;5.17;;
11086;SDS011;5597;47.588;9.642;2023-06-22T11:16:44;10.43;;;5.10;;
11086;SDS011;5597;47.588;9.642;2023-06-22T11:19:11;7.90;;;4.77;;
11086;SDS011;5597;47.588;9.642;2023-06-22T11:21:37;6.50;;;4.87;;
11086;SDS011;5597;47.588;9.642;2023-06-22T11:24:03;9.07;;;5.10;;
11086;SDS011;5597;47.588;9.642;2023-06-22T11:26:29;5.37;;;4.47;;
11086;SDS011;5597;47.588;9.642;2023-06-22T11:28:55;8.37;;;5.07;;
11086;SDS011;5597;47.588;9.642;2023-06-22T11:31:20;6.73;;;5.10;;
11086;SDS011;5597;47.588;9.642;2023-06-22T11:33:46;7.93;;;5.07;;
11086;SDS011;5597;47.588;9.642;2023-06-22T11:36:12;5.97;;;5.20;;
11086;SDS011;5597;47.588;9.642;2023-06-22T11:38:39;8.17;;;5.33;;
11086;SDS011;5597;47.588;9.642;2023-06-22T11:41:05;5.93;;;4.63;;
11086;SDS011;5597;47.588;9.642;2023-06-22T11:43:31;9.47;;;6.30;;
11086;SDS011;5597;47.588;9.642;2023-06-22T11:45:57;8.67;;;5.30;;
11086;SDS011;5597;47.588;9.642;2023-06-22T11:48:26;11.03;;;5.90;;
11086;SDS011;5597;47.588;9.642;2023-06-22T11:50:52;9.23;;;5.77;;
11086;SDS011;5597;47.588;9.642;2023-06-22T11:53:17;10.20;;;6.73;;
11086;SDS011;5597;47.588;9.642;2023-06-22T11:55:44;8.03;;;6.10;;
11086;SDS011;5597;47.588;9.642;2023-06-22T11:58:19;7.83;;;6.07;;
11086;SDS011;5597;47.588;9.642;2023-06-22T12:00:45;8.50;;;6.40;;
11086;SDS011;5597;47.588;9.642;2023-06-22T12:03:10;7.70;;;5.50;;
11086;SDS011;5597;47.588;9.642;2023-06-22T12:05:37;7.07;;;5.13;;
11086;SDS011;5597;47.588;9.642;2023-06-22T12:08:03;10.50;;;8.20;;
11086;SDS011;5597;47.588;9.642;2023-06-22T12:10:29;6.93;;;5.30;;
11086;SDS011;5597;47.588;9.642;2023-06-22T12:12:54;6.93;;;5.50;;
11086;SDS011;5597;47.588;9.642;2023-06-22T12:15:20;5.67;;;4.70;;
11086;SDS011;5597;47.588;9.642;2023-06-22T12:17:46;5.80;;;5.00;;
11086;SDS011;5597;47.588;9.642;2023-06-22T12:20:13;8.30;;;5.73;;
11086;SDS011;5597;47.588;9.642;2023-06-22T12:22:39;7.13;;;6.23;;
11086;SDS011;5597;47.588;9.642;2023-06-22T12:25:06;9.20;;;6.33;;
11086;SDS011;5597;47.588;9.642;2023-06-22T12:27:32;8.13;;;5.47;;
11086;SDS011;5597;47.588;9.642;2023-06-22T12:29:58;6.73;;;5.90;;
11086;SDS011;5597;47.588;9.642;2023-06-22T12:32:23;11.47;;;6.70;;
11086;SDS011;5597;47.588;9.642;2023-06-22T12:34:50;11.53;;;6.27;;
11086;SDS011;5597;47.588;9.642;2023-06-22T12:37:16;6.27;;;5.43;;
11086;SDS011;5597;47.588;9.642;2023-06-22T12:39:42;7.57;;;5.73;;
11086;SDS011;5597;47.588;9.642;2023-06-22T12:42:08;8.50;;;6.00;;
11086;SDS011;5597;47.588;9.642;2023-06-22T12:44:37;8.60;;;6.13;;
11086;SDS011;5597;47.588;9.642;2023-06-22T12:47:03;7.70;;;6.23;;
11086;SDS011;5597;47.588;9.642;2023-06-22T12:49:29;7.67;;;6.37;;
11086;SDS011;5597;47.588;9.642;2023-06-22T12:51:55;9.77;;;7.00;;
11086;SDS011;5597;47.588;9.642;2023-06-22T12:54:20;10.17;;;7.37;;
11086;SDS011;5597;47.588;9.642;2023-06-22T12:56:46;8.40;;;7.07;;
11086;SDS011;5597;47.588;9.642;2023-06-22T12:59:12;7.03;;;5.73;;
11086;SDS011;5597;47.588;9.642;2023-06-22T13:01:38;12.90;;;7.97;;
11086;SDS011;5597;47.588;9.642;2023-06-22T13:04:03;11.37;;;7.37;;
11086;SDS011;5597;47.588;9.642;2023-06-22T13:06:30;9.07;;;7.40;;
11086;SDS011;5597;47.588;9.642;2023-06-22T13:08:55;12.87;;;8.87;;
11086;SDS011;5597;47.588;9.642;2023-06-22T13:11:21;10.27;;;6.90;;
11086;SDS011;5597;47.588;9.642;2023-06-22T13:13:47;9.27;;;5.90;;
11086;SDS011;5597;47.588;9.642;2023-06-22T13:16:12;9.03;;;7.17;;
11086;SDS011;5597;47.588;9.642;2023-06-22T13:18:38;12.17;;;8.43;;
11086;SDS011;5597;47.588;9.642;2023-06-22T13:21:04;9.50;;;7.50;;
11086;SDS011;5597;47.588;9.642;2023-06-22T13:23:30;9.80;;;6.13;;
11086;SDS011;5597;47.588;9.642;2023-06-22T13:25:57;8.67;;;6.57;;
11086;SDS011;5597;47.588;9.642;2023-06-22T13:28:23;8.63;;;6.30;;
11086;SDS011;5597;47.588;9.642;2023-06-22T13:30:49;8.03;;;6.00;;
11086;SDS011;5597;47.588;9.642;2023-06-22T13:33:14;10.07;;;5.97;;
11086;SDS011;5597;47.588;9.642;2023-06-22T13:35:40;7.27;;;5.83;;
11086;SDS011;5597;47.588;9.642;2023-06-22T13:38:07;7.73;;;5.50;;
11086;SDS011;5597;47.588;9.642;2023-06-22T13:40:34;10.40;;;6.23;;
11086;SDS011;5597;47.588;9.642;2023-06-22T13:43:00;7.50;;;5.93;;
11086;SDS011;5597;47.588;9.642;2023-06-22T13:45:25;8.93;;;6.50;;
11086;SDS011;5597;47.588;9.642;2023-06-22T13:47:51;8.13;;;6.03;;
11086;SDS011;5597;47.588;9.642;2023-06-22T13:50:17;8.37;;;6.40;;
11086;SDS011;5597;47.588;9.642;2023-06-22T13:52:43;10.20;;;6.07;;
11086;SDS011;5597;47.588;9.642;2023-06-22T13:55:08;11.23;;;6.40;;
11086;SDS011;5597;47.588;9.642;2023-06-22T13:57:35;7.87;;;5.50;;
11086;SDS011;5597;47.588;9.642;2023-06-22T14:00:03;10.07;;;5.73;;
11086;SDS011;5597;47.588;9.642;2023-06-22T14:02:30;6.33;;;5.60;;
11086;SDS011;5597;47.588;9.642;2023-06-22T14:04:56;7.07;;;5.07;;
11086;SDS011;5597;47.588;9.642;2023-06-22T14:07:22;9.77;;;6.37;;
11086;SDS011;5597;47.588;9.642;2023-06-22T14:09:49;9.70;;;6.20;;
11086;SDS011;5597;47.588;9.642;2023-06-22T14:12:15;9.57;;;5.50;;
11086;SDS011;5597;47.588;9.642;2023-06-22T14:14:42;9.37;;;5.83;;
11086;SDS011;5597;47.588;9.642;2023-06-22T14:17:08;9.43;;;5.97;;
11086;SDS011;5597;47.588;9.642;2023-06-22T14:19:34;11.47;;;5.97;;
11086;SDS011;5597;47.588;9.642;2023-06-22T14:21:59;8.20;;;5.63;;
11086;SDS011;5597;47.588;9.642;2023-06-22T14:24:25;8.50;;;5.53;;
11086;SDS011;5597;47.588;9.642;2023-06-22T14:26:50;6.20;;;5.20;;
11086;SDS011;5597;47.588;9.642;2023-06-22T14:29:16;9.47;;;5.73;;
11086;SDS011;5597;47.588;9.642;2023-06-22T14:31:44;9.27;;;6.87;;
11086;SDS011;5597;47.588;9.642;2023-06-22T14:34:10;11.13;;;6.67;;
11086;SDS011;5597;47.588;9.642;2023-06-22T14:36:36;6.93;;;5.60;;
11086;SDS011;5597;47.588;9.642;2023-06-22T14:39:02;7.20;;;5.10;;
11086;SDS011;5597;47.588;9.642;2023-06-22T14:41:28;5.90;;;5.03;;
11086;SDS011;5597;47.588;9.642;2023-06-22T14:43:55;7.70;;;5.47;;
11086;SDS011;5597;47.588;9.642;2023-06-22T14:46:20;8.37;;;5.97;;
11086;SDS011;5597;47.588;9.642;2023-06-22T14:48:46;10.37;;;6.00;;
11086;SDS011;5597;47.588;9.642;2023-06-22T14:51:12;7.27;;;6.23;;
11086;SDS011;5597;47.588;9.642;2023-06-22T14:53:38;7.73;;;5.97;;
11086;SDS011;5597;47.588;9.642;2023-06-22T14:56:03;9.13;;;6.33;;